Time;durP1;ratioP1;P1;durP2;ratioP2;P2;SDS_P1;SDS_P2;PMS_P1;PMS_P2;Temp;Humidity;BMP_temperature;BMP_pressure;BME280_temperature;BME280_humidity;BME280_pressure;Samples;Min_cycle;Max_cycle;Signal;HPM_P1;HPM_P2
2022/07/28 00:02:11;;;;;;;18.35;13.57;;;;;;;21.48;71.39;97389.22;10384772;28;20459;-56
2022/07/28 00:07:10;;;;;;;14.35;12.30;;;;;;;21.47;71.14;97387.47;10383611;28;20079;-56
2022/07/28 00:12:09;;;;;;;15.68;11.38;;;;;;;21.61;70.61;97396.50;10384818;28;20068;-56
2022/07/28 00:17:08;;;;;;;17.58;12.05;;;;;;;21.70;70.17;97401.31;10383955;28;20024;-56
2022/07/28 00:22:07;;;;;;;16.75;11.85;;;;;;;21.80;69.87;97397.25;10384114;28;20472;-56
2022/07/28 00:27:06;;;;;;;14.32;11.60;;;;;;;21.89;69.54;97402.06;10384049;28;20040;-56
2022/07/28 00:32:05;;;;;;;15.43;12.60;;;;;;;21.85;69.75;97413.72;10384656;28;20460;-56
2022/07/28 00:37:04;;;;;;;15.65;12.60;;;;;;;21.84;69.59;97408.53;10383872;28;20044;-56
2022/07/28 00:42:03;;;;;;;16.05;12.07;;;;;;;21.84;69.57;97409.38;10382893;28;20049;-56
2022/07/28 00:47:02;;;;;;;14.65;11.35;;;;;;;21.88;69.23;97421.50;10383538;28;20064;-56
2022/07/28 00:52:03;;;;;;;13.88;10.65;;;;;;;21.94;68.78;97422.94;10383581;28;20021;-56
2022/07/28 00:57:02;;;;;;;12.57;10.60;;;;;;;21.91;68.02;97420.47;10383714;28;20072;-56
2022/07/28 01:02:02;;;;;;;13.55;10.27;;;;;;;22.03;67.70;97429.59;10383851;28;20315;-56
2022/07/28 01:07:01;;;;;;;12.68;10.38;;;;;;;22.11;67.66;97427.41;10378860;28;20069;-56
2022/07/28 01:11:59;;;;;;;15.18;10.45;;;;;;;22.13;67.57;97417.56;10377027;28;20021;-56
2022/07/28 01:17:01;;;;;;;16.45;10.73;;;;;;;22.06;67.98;97411.78;10376599;28;20492;-55
2022/07/28 01:22:03;;;;;;;15.32;11.18;;;;;;;22.06;68.10;97421.47;10375946;28;20071;-55
2022/07/28 01:27:09;;;;;;;14.38;9.32;;;;;;;21.97;66.84;97418.38;10375516;28;20073;-55
2022/07/28 01:32:24;;;;;;;9.75;8.15;;;;;;;22.15;63.94;97402.50;10375278;28;20159;-57
2022/07/28 01:37:27;;;;;;;9.43;7.85;;;;;;;22.48;62.91;97410.38;10375522;28;20061;-57
2022/07/28 01:42:32;;;;;;;11.43;7.82;;;;;;;22.68;61.99;97409.31;10375901;28;20076;-56
2022/07/28 01:47:33;;;;;;;14.38;7.97;;;;;;;22.78;60.32;97397.28;10375421;28;20843;-57
2022/07/28 01:52:36;;;;;;;9.73;8.27;;;;;;;23.01;60.12;97413.69;10375462;28;20475;-57
2022/07/28 01:57:36;;;;;;;15.93;10.13;;;;;;;22.94;62.24;97412.31;10374524;28;20059;-57
2022/07/28 02:02:37;;;;;;;11.82;9.68;;;;;;;22.87;62.45;97400.38;10375029;28;20069;-57
2022/07/28 02:07:38;;;;;;;11.70;9.35;;;;;;;22.75;62.94;97405.41;10375231;28;20072;-57
2022/07/28 02:12:38;;;;;;;11.80;9.57;;;;;;;22.62;63.75;97388.47;10374516;28;20056;-56
2022/07/28 02:17:41;;;;;;;13.50;10.02;;;;;;;22.60;63.53;97379.81;10373771;28;20865;-57
2022/07/28 02:22:41;;;;;;;11.20;9.07;;;;;;;22.64;63.82;97388.41;10374241;28;20067;-56
2022/07/28 02:27:46;;;;;;;13.43;9.55;;;;;;;22.67;63.63;97394.38;10373698;28;20072;-56
2022/07/28 02:32:58;;;;;;;11.38;8.98;;;;;;;22.72;63.47;97397.63;10373851;28;20061;-56
2022/07/28 02:38:00;;;;;;;13.82;9.45;;;;;;;22.76;63.24;97409.78;10373638;28;20056;-56
2022/07/28 02:43:01;;;;;;;13.18;9.52;;;;;;;22.76;62.96;97411.56;10372727;28;20077;-56
2022/07/28 02:48:04;;;;;;;14.52;9.80;;;;;;;22.77;66.05;97416.75;10373649;28;20225;-56
2022/07/28 02:53:04;;;;;;;17.45;10.63;;;;;;;22.48;70.40;97420.13;10372397;28;20080;-56
2022/07/28 02:58:04;;;;;;;15.63;10.32;;;;;;;22.08;71.76;97432.81;10373134;28;20056;-57
2022/07/28 03:03:03;;;;;;;16.05;11.85;;;;;;;21.88;75.39;97429.41;10373061;28;20068;-56
2022/07/28 03:08:02;;;;;;;16.35;12.10;;;;;;;21.76;78.00;97433.53;10371995;28;20060;-56
2022/07/28 03:13:05;;;;;;;15.32;12.07;;;;;;;21.63;79.35;97442.16;10370460;28;20446;-56
2022/07/28 03:18:05;;;;;;;22.40;14.65;;;;;;;21.48;80.80;97434.09;10371646;28;20072;-56
2022/07/28 03:23:04;;;;;;;16.90;14.30;;;;;;;21.47;81.27;97448.22;10369528;28;20084;-56
2022/07/28 03:28:06;;;;;;;16.52;13.73;;;;;;;21.42;82.29;97449.38;10369548;28;20470;-55
2022/07/28 03:33:06;;;;;;;16.52;13.00;;;;;;;21.36;83.23;97461.09;10372238;28;20061;-55
2022/07/28 03:38:12;;;;;;;16.50;13.07;;;;;;;21.34;83.83;97478.81;10370592;28;20060;-56
2022/07/28 03:43:13;;;;;;;15.88;12.70;;;;;;;21.30;84.18;97472.81;10369944;28;20069;-56
2022/07/28 03:48:13;;;;;;;15.70;12.60;;;;;;;21.18;84.76;97461.97;10370848;28;20063;-56
2022/07/28 03:53:19;;;;;;;15.57;12.48;;;;;;;21.11;85.12;97464.03;10371911;28;20071;-56
2022/07/28 03:58:20;;;;;;;14.98;11.68;;;;;;;21.06;85.51;97459.00;10371165;28;20056;-56
2022/07/28 04:03:19;;;;;;;14.70;11.73;;;;;;;21.11;85.19;97456.97;10371526;28;20508;-56
2022/07/28 04:08:18;;;;;;;15.73;11.73;;;;;;;21.13;85.30;97463.03;10371676;28;20060;-56
2022/07/28 04:13:19;;;;;;;13.73;11.55;;;;;;;21.15;85.69;97468.25;10368696;28;20024;-56
2022/07/28 04:18:18;;;;;;;15.27;11.90;;;;;;;21.21;85.66;97481.16;10369720;28;20143;-56
2022/07/28 04:23:19;;;;;;;16.73;13.63;;;;;;;21.22;85.85;97474.97;10368668;28;20075;-56
2022/07/28 04:28:18;;;;;;;16.48;13.52;;;;;;;21.23;85.94;97481.09;10368228;28;20539;-56
2022/07/28 04:33:18;;;;;;;19.08;14.07;;;;;;;21.25;85.73;97480.09;10368033;28;20499;-55
2022/07/28 04:38:19;;;;;;;20.08;14.82;;;;;;;21.34;85.24;97478.81;10370451;28;20091;-56
2022/07/28 04:43:17;;;;;;;18.58;14.25;;;;;;;21.47;85.16;97471.97;10375792;28;20080;-55
2022/07/28 04:48:16;;;;;;;16.25;13.40;;;;;;;21.40;85.16;97470.56;10372229;28;20028;-55
2022/07/28 04:53:17;;;;;;;18.08;14.00;;;;;;;21.55;84.59;97487.44;10375045;28;20028;-55
2022/07/28 04:58:17;;;;;;;18.48;13.93;;;;;;;21.68;84.76;97482.41;10375835;28;20060;-55
2022/07/28 05:03:17;;;;;;;17.08;13.73;;;;;;;21.77;83.06;97481.94;10374733;28;20110;-56
2022/07/28 05:08:16;;;;;;;17.88;14.32;;;;;;;22.05;82.60;97491.13;10376586;28;20080;-56
2022/07/28 05:13:15;;;;;;;19.75;14.18;;;;;;;22.23;82.45;97490.19;10371610;28;20061;-56
2022/07/28 05:18:14;;;;;;;16.63;14.27;;;;;;;22.34;81.30;97503.69;10369415;28;20370;-56
2022/07/28 05:23:13;;;;;;;22.40;14.95;;;;;;;22.37;82.28;97487.66;10373087;28;20044;-56
2022/07/28 05:28:12;;;;;;;18.05;14.45;;;;;;;22.39;81.62;97485.78;10373759;28;20056;-58
2022/07/28 05:33:14;;;;;;;14.55;12.57;;;;;;;22.07;80.86;97507.75;10375326;28;20047;-56
2022/07/28 05:38:13;;;;;;;18.35;13.30;;;;;;;22.12;80.70;97498.66;10374442;28;20056;-57
2022/07/28 05:43:11;;;;;;;21.80;13.80;;;;;;;22.35;80.04;97488.69;10372390;28;20307;-56
2022/07/28 05:48:11;;;;;;;12.80;11.05;;;;;;;22.45;75.43;97478.47;10373424;28;20117;-56
2022/07/28 05:53:10;;;;;;;14.40;12.93;;;;;;;22.67;76.00;97479.03;10371633;28;20504;-57
2022/07/28 05:58:08;;;;;;;16.70;13.35;;;;;;;22.86;75.34;97465.69;10372743;28;20522;-56
2022/07/28 06:03:07;;;;;;;17.65;14.60;;;;;;;22.79;75.70;97464.31;10367568;28;20108;-57
2022/07/28 06:08:06;;;;;;;15.02;13.40;;;;;;;22.77;76.05;97472.31;10364842;28;20040;-57
2022/07/28 06:13:05;;;;;;;17.95;15.20;;;;;;;22.79;76.50;97482.81;10362487;28;20065;-57
2022/07/28 06:18:05;;;;;;;18.50;15.82;;;;;;;22.62;77.01;97491.63;10367646;28;20489;-57
2022/07/28 06:23:04;;;;;;;18.08;16.13;;;;;;;22.51;79.72;97488.72;10371482;28;20071;-57
2022/07/28 06:28:03;;;;;;;21.17;16.73;;;;;;;22.43;81.09;97488.25;10371363;28;20072;-57
2022/07/28 06:33:04;;;;;;;24.67;17.20;;;;;;;22.46;82.64;97490.72;10370736;28;20064;-57
2022/07/28 06:38:03;;;;;;;19.17;16.33;;;;;;;22.33;82.19;97501.97;10368992;28;20073;-58
2022/07/28 06:43:02;;;;;;;18.65;16.65;;;;;;;22.22;82.71;97500.81;10368971;28;20024;-57
2022/07/28 06:48:01;;;;;;;22.50;18.02;;;;;;;22.27;83.53;97497.03;10369197;28;20076;-57
2022/07/28 06:53:00;;;;;;;23.05;17.33;;;;;;;22.38;84.21;97518.44;10370755;28;20033;-57
2022/07/28 06:57:59;;;;;;;19.33;17.27;;;;;;;22.42;83.93;97526.22;10369999;28;20025;-57
2022/07/28 07:02:58;;;;;;;23.30;19.08;;;;;;;22.41;84.08;97532.44;10372104;28;20037;-57
2022/07/28 07:07:57;;;;;;;20.35;17.55;;;;;;;22.34;83.41;97543.34;10372018;28;20033;-57
2022/07/28 07:12:56;;;;;;;17.60;15.77;;;;;;;22.25;83.37;97549.09;10372965;28;20077;-57
2022/07/28 07:17:55;;;;;;;20.00;17.27;;;;;;;22.14;83.37;97549.66;10371755;28;20606;-57
2022/07/28 07:22:54;;;;;;;20.58;17.50;;;;;;;22.05;83.91;97542.19;10371868;28;20079;-57
2022/07/28 07:27:53;;;;;;;20.23;17.27;;;;;;;22.10;84.25;97549.88;10371838;28;20033;-57
2022/07/28 07:32:52;;;;;;;18.58;16.48;;;;;;;22.17;84.15;97548.63;10371678;28;20069;-56
2022/07/28 07:37:51;;;;;;;17.90;15.80;;;;;;;22.23;83.95;97548.34;10371183;28;20067;-56
2022/07/28 07:42:50;;;;;;;18.55;16.40;;;;;;;22.43;83.17;97549.94;10370889;28;20516;-57
2022/07/28 07:47:49;;;;;;;17.80;15.80;;;;;;;22.62;83.05;97539.22;10371005;28;20321;-57
2022/07/28 07:52:48;;;;;;;17.75;15.95;;;;;;;22.85;83.12;97555.72;10370765;28;20123;-57
2022/07/28 07:57:47;;;;;;;18.65;16.67;;;;;;;23.10;81.87;97558.72;10370617;28;20107;-57
2022/07/28 08:02:46;;;;;;;18.70;15.07;;;;;;;23.38;81.07;97563.34;10370925;28;20040;-57
2022/07/28 08:07:45;;;;;;;17.33;14.43;;;;;;;23.72;79.92;97563.25;10370639;28;20061;-57
2022/07/28 08:12:44;;;;;;;17.48;13.82;;;;;;;24.03;76.95;97571.16;10370824;28;20027;-57
2022/07/28 08:17:43;;;;;;;18.85;14.02;;;;;;;24.41;75.00;97567.22;10377469;28;20547;-57
2022/07/28 08:23:01;;;;;;;16.92;14.85;;;;;;;25.00;73.62;97585.75;10378095;28;20419;-57
2022/07/28 08:28:00;;;;;;;19.77;15.68;;;;;;;25.36;70.44;97592.34;10378401;28;20080;-57
2022/07/28 08:33:01;;;;;;;18.40;16.48;;;;;;;24.98;70.52;97598.28;10377805;28;20035;-57
2022/07/28 08:38:00;;;;;;;17.65;14.95;;;;;;;24.84;71.36;97602.59;10377961;28;20071;-57
2022/07/28 08:43:14;;;;;;;17.55;14.88;;;;;;;24.75;70.17;97608.44;10377379;28;20081;-57
2022/07/28 08:48:13;;;;;;;16.10;14.43;;;;;;;24.26;69.69;97611.38;10377936;28;20072;-56
2022/07/28 08:53:13;;;;;;;16.38;13.85;;;;;;;24.00;70.69;97621.69;10377145;28;20072;-56
2022/07/28 08:58:13;;;;;;;18.00;15.00;;;;;;;23.94;72.15;97622.06;10376765;28;20103;-56
2022/07/28 09:03:12;;;;;;;17.23;15.23;;;;;;;23.82;73.89;97628.91;10377232;28;20071;-56
2022/07/28 09:08:11;;;;;;;19.77;15.43;;;;;;;24.11;73.13;97631.66;10376829;28;20789;-56
2022/07/28 09:13:10;;;;;;;16.30;14.20;;;;;;;24.44;71.37;97635.97;10376979;28;20084;-56
2022/07/28 09:18:09;;;;;;;15.95;13.90;;;;;;;24.85;71.05;97632.66;10375487;28;20525;-56
2022/07/28 09:23:09;;;;;;;15.88;14.23;;;;;;;25.27;68.50;97638.94;10376343;28;20491;-56
2022/07/28 09:28:09;;;;;;;14.40;12.88;;;;;;;25.45;67.06;97636.94;10375700;28;20574;-56
2022/07/28 09:33:23;;;;;;;17.98;14.25;;;;;;;25.35;67.08;97634.00;10376568;28;20491;-56
2022/07/28 09:38:24;;;;;;;15.57;13.85;;;;;;;25.42;66.00;97637.13;10379962;28;20076;-57
2022/07/28 09:43:33;;;;;;;13.77;12.25;;;;;;;25.69;65.88;97638.06;10369157;28;20080;-57
2022/07/28 09:48:33;;;;;;;12.77;11.48;;;;;;;26.10;60.95;97626.53;10378627;28;20053;-57
2022/07/28 09:53:32;;;;;;;11.77;10.48;;;;;;;26.52;55.82;97615.81;10378537;28;20064;-57
2022/07/28 09:58:31;;;;;;;12.60;11.30;;;;;;;26.93;55.92;97623.63;10378051;28;20071;-57
2022/07/28 10:03:31;;;;;;;13.27;10.85;;;;;;;27.39;55.74;97628.34;10377690;28;20029;-57
2022/07/28 10:08:44;;;;;;;12.32;9.73;;;;;;;27.70;53.60;97615.50;10364150;28;20551;-57
2022/07/28 10:13:52;;;;;;;12.20;10.05;;;;;;;27.89;51.08;97616.81;10336969;28;20033;-57
2022/07/28 10:18:51;;;;;;;11.10;9.77;;;;;;;27.93;48.97;97605.81;10346171;28;20061;-57
2022/07/28 10:23:56;;;;;;;16.30;10.98;;;;;;;27.57;48.24;97609.38;10375892;28;20500;-57
2022/07/28 10:28:55;;;;;;;15.48;9.57;;;;;;;26.96;49.11;97599.44;10377413;28;20056;-57
2022/07/28 10:33:58;;;;;;;12.18;9.18;;;;;;;27.18;48.43;97598.78;10368715;28;20057;-57
2022/07/28 10:39:01;;;;;;;11.00;9.07;;;;;;;27.56;48.45;97597.84;10332077;28;20076;-57
2022/07/28 10:44:02;;;;;;;13.13;9.88;;;;;;;27.57;47.85;97606.72;10332361;28;20068;-57
2022/07/28 10:49:02;;;;;;;12.73;10.27;;;;;;;27.96;48.83;97610.94;10332232;28;20585;-57
2022/07/28 10:54:22;;;;;;;13.07;9.00;;;;;;;28.48;46.30;97600.88;10332042;28;20075;-57
2022/07/28 10:59:44;;;;;;;10.45;9.15;;;;;;;28.94;44.66;97602.66;10331447;28;20065;-57
2022/07/28 11:04:51;;;;;;;10.60;9.43;;;;;;;29.13;44.52;97595.84;10331973;28;20077;-58
2022/07/28 11:09:50;;;;;;;10.52;9.45;;;;;;;29.64;44.75;97590.00;10331113;28;20084;-57
2022/07/28 11:14:50;;;;;;;11.13;9.85;;;;;;;30.07;43.36;97581.13;10331628;28;20073;-58
2022/07/28 11:19:51;;;;;;;10.65;9.35;;;;;;;29.29;43.65;97583.00;10346785;28;20064;-58
2022/07/28 11:25:00;;;;;;;10.95;8.93;;;;;;;29.06;43.86;97571.44;10372037;28;20461;-57
2022/07/28 11:29:59;;;;;;;12.35;9.13;;;;;;;28.92;43.75;97567.19;10371448;28;20076;-58
2022/07/28 11:35:06;;;;;;;9.90;8.85;;;;;;;29.06;45.77;97553.63;10371466;28;20039;-57
2022/07/28 11:40:40;;;;;;;12.75;9.15;;;;;;;29.21;44.50;97554.19;10371301;28;20077;-58
2022/07/28 11:45:39;;;;;;;10.55;9.13;;;;;;;29.45;45.09;97543.38;10371196;28;20073;-58
2022/07/28 11:51:02;;;;;;;9.65;8.65;;;;;;;29.45;43.75;97538.03;10370308;28;20539;-58
2022/07/28 11:56:09;;;;;;;11.45;9.43;;;;;;;29.44;43.44;97541.69;10370769;28;20507;-57
2022/07/28 12:01:19;;;;;;;9.80;8.32;;;;;;;29.52;44.05;97529.50;10371748;28;20449;-57
2022/07/28 12:06:19;;;;;;;9.90;8.90;;;;;;;29.28;43.38;97530.53;10371396;28;20069;-57
2022/07/28 12:11:19;;;;;;;10.00;9.00;;;;;;;29.32;44.29;97521.31;10371291;28;20075;-57
2022/07/28 12:16:18;;;;;;;11.15;9.40;;;;;;;29.25;43.23;97528.94;10370247;28;20091;-57
2022/07/28 12:21:44;;;;;;;14.93;9.45;;;;;;;29.35;44.03;97525.56;10369960;28;20448;-57
2022/07/28 12:26:43;;;;;;;12.48;9.77;;;;;;;29.74;43.83;97534.78;10370324;28;20073;-57
2022/07/28 12:31:57;;;;;;;29.95;26.95;;;;;;;29.83;43.07;97534.00;10369050;28;20084;-57
2022/07/28 12:37:00;;;;;;;13.30;11.25;;;;;;;29.40;42.87;97528.69;10370013;28;20060;-57
2022/07/28 12:42:04;;;;;;;10.55;9.45;;;;;;;29.30;43.37;97528.59;10369403;28;20083;-57
2022/07/28 12:47:06;;;;;;;11.32;10.20;;;;;;;29.63;43.14;97524.13;10370196;28;20068;-57
2022/07/28 12:52:16;;;;;;;11.88;9.15;;;;;;;30.14;43.21;97528.81;10369564;28;20068;-57
2022/07/28 12:57:15;;;;;;;11.23;9.63;;;;;;;30.71;42.21;97523.97;10370253;28;20117;-57
2022/07/28 13:02:15;;;;;;;9.63;8.23;;;;;;;30.53;40.06;97515.69;10373745;28;20123;-57
2022/07/28 13:07:20;;;;;;;10.23;8.40;;;;;;;30.83;39.75;97508.66;10376975;28;20064;-57
2022/07/28 13:12:22;;;;;;;10.93;8.75;;;;;;;31.10;39.67;97514.28;10376817;28;20075;-57
2022/07/28 13:17:23;;;;;;;10.00;8.57;;;;;;;31.08;39.22;97510.91;10377414;28;20057;-57
2022/07/28 13:22:27;;;;;;;11.50;8.50;;;;;;;31.10;38.98;97505.38;10376190;28;20484;-57
2022/07/28 13:27:27;;;;;;;8.90;8.07;;;;;;;31.30;39.26;97501.78;10376218;28;20095;-57
2022/07/28 13:32:26;;;;;;;10.05;8.45;;;;;;;31.46;38.74;97493.19;10375805;28;20428;-57
2022/07/28 13:37:25;;;;;;;9.80;7.10;;;;;;;31.18;37.67;97493.00;10373167;28;20111;-57
2022/07/28 13:42:24;;;;;;;11.10;8.10;;;;;;;31.35;38.95;97487.94;10372888;28;20455;-57
2022/07/28 13:47:23;;;;;;;10.90;7.95;;;;;;;31.15;38.53;97493.28;10373181;28;20111;-57
2022/07/28 13:52:23;;;;;;;9.35;8.15;;;;;;;31.05;38.81;97502.25;10372858;28;20048;-57
2022/07/28 13:57:22;;;;;;;12.13;7.93;;;;;;;30.99;38.99;97495.63;10374984;28;20061;-56
2022/07/28 14:02:21;;;;;;;10.65;8.43;;;;;;;31.02;39.04;97500.72;10374670;28;20040;-56
2022/07/28 14:07:20;;;;;;;9.50;7.80;;;;;;;31.14;39.83;97483.53;10374567;28;20061;-58
2022/07/28 14:12:19;;;;;;;9.57;7.53;;;;;;;31.29;39.72;97483.16;10373595;28;20069;-56
2022/07/28 14:17:24;;;;;;;9.27;7.63;;;;;;;31.24;38.47;97474.66;10369772;28;20027;-56
2022/07/28 14:22:23;;;;;;;9.27;7.63;;;;;;;31.02;39.08;97463.19;10372642;28;20134;-56
2022/07/28 14:27:22;;;;;;;9.70;7.97;;;;;;;30.92;40.34;97465.81;10368963;28;20020;-56
2022/07/28 14:32:21;;;;;;;10.80;8.38;;;;;;;30.64;41.39;97469.25;10372894;28;20029;-56
2022/07/28 14:37:20;;;;;;;11.32;8.48;;;;;;;30.38;41.45;97450.06;10374324;28;20056;-56
2022/07/28 14:42:20;;;;;;;10.68;8.38;;;;;;;30.09;40.96;97446.25;10372844;28;20053;-55
2022/07/28 14:47:21;;;;;;;14.35;9.27;;;;;;;29.80;41.68;97429.94;10372984;28;20472;-56
2022/07/28 14:52:20;;;;;;;9.48;8.43;;;;;;;29.71;40.96;97420.88;10373306;28;20064;-56
2022/07/28 14:57:19;;;;;;;12.05;9.18;;;;;;;29.80;41.05;97416.59;10372409;28;20056;-56
2022/07/28 15:02:18;;;;;;;10.80;9.70;;;;;;;29.77;39.77;97424.88;10372462;28;20059;-56
2022/07/28 15:07:17;;;;;;;11.02;9.90;;;;;;;29.35;40.32;97430.16;10371863;28;20025;-57
2022/07/28 15:12:16;;;;;;;11.20;10.10;;;;;;;29.02;40.37;97431.94;10372066;28;20483;-57
2022/07/28 15:17:15;;;;;;;10.88;9.25;;;;;;;29.06;39.52;97437.84;10372308;28;20532;-57
2022/07/28 15:22:14;;;;;;;10.85;9.35;;;;;;;28.99;38.57;97434.88;10370529;28;20475;-57
2022/07/28 15:27:13;;;;;;;11.05;9.18;;;;;;;29.03;39.30;97452.31;10368934;28;20061;-57
2022/07/28 15:32:12;;;;;;;9.40;8.40;;;;;;;28.99;39.32;97456.22;10367463;28;20402;-56
2022/07/28 15:37:11;;;;;;;8.95;7.82;;;;;;;28.73;39.91;97465.47;10367382;28;20025;-56
2022/07/28 15:42:10;;;;;;;9.88;8.43;;;;;;;28.51;41.07;97469.81;10368490;28;20051;-57
2022/07/28 15:47:09;;;;;;;10.05;8.38;;;;;;;28.37;42.59;97478.06;10370768;28;20064;-56
2022/07/28 15:52:08;;;;;;;12.10;8.90;;;;;;;28.17;43.39;97469.78;10368907;28;20033;-56
2022/07/28 15:57:08;;;;;;;10.85;9.20;;;;;;;28.10;44.38;97457.03;10369606;28;20075;-56
2022/07/28 16:02:06;;;;;;;10.88;9.25;;;;;;;28.07;45.13;97463.44;10367714;28;20072;-56
2022/07/28 16:07:18;;;;;;;10.55;8.27;;;;;;;27.92;46.11;97461.94;10369460;28;20112;-56
2022/07/28 16:12:17;;;;;;;13.63;9.77;;;;;;;27.75;46.87;97472.06;10370047;28;20072;-57
2022/07/28 16:17:17;;;;;;;14.23;9.43;;;;;;;27.69;47.45;97469.84;10369524;28;20073;-57
2022/07/28 16:22:19;;;;;;;16.45;10.13;;;;;;;27.63;47.48;97478.31;10368101;28;20115;-56
2022/07/28 16:27:18;;;;;;;12.55;9.35;;;;;;;27.57;47.96;97487.63;10366680;28;20059;-58
2022/07/28 16:32:17;;;;;;;12.57;9.40;;;;;;;27.55;48.66;97483.38;10371133;28;20064;-57
2022/07/28 16:37:16;;;;;;;13.05;9.82;;;;;;;27.56;48.65;97493.06;10377353;28;20112;-58
2022/07/28 16:42:15;;;;;;;13.27;11.10;;;;;;;27.52;50.46;97494.28;10379473;28;20137;-56
2022/07/28 16:47:15;;;;;;;16.35;11.43;;;;;;;27.41;51.71;97503.84;10375106;28;20112;-57
2022/07/28 16:52:14;;;;;;;13.57;11.43;;;;;;;27.30;52.89;97509.13;10372702;28;20151;-57
2022/07/28 16:57:13;;;;;;;13.48;10.85;;;;;;;27.19;53.66;97525.06;10367208;28;20040;-57
2022/07/28 17:02:13;;;;;;;12.45;10.45;;;;;;;26.93;54.37;97516.25;10373781;28;20480;-58
2022/07/28 17:07:12;;;;;;;12.93;11.60;;;;;;;26.83;54.99;97517.84;10377238;28;20080;-58
2022/07/28 17:12:11;;;;;;;15.07;12.10;;;;;;;26.70;55.86;97512.53;10376507;28;20087;-56
2022/07/28 17:17:10;;;;;;;14.15;12.25;;;;;;;26.58;56.09;97517.78;10373724;28;20122;-56
2022/07/28 17:22:10;;;;;;;15.85;11.95;;;;;;;26.50;56.07;97536.06;10376516;28;20032;-56
2022/07/28 17:27:09;;;;;;;17.05;13.18;;;;;;;26.41;55.80;97543.84;10375856;28;20073;-57
2022/07/28 17:32:08;;;;;;;16.15;12.02;;;;;;;26.31;55.66;97554.25;10375086;28;20039;-56
2022/07/28 17:37:07;;;;;;;17.90;12.50;;;;;;;26.22;55.45;97565.53;10375998;28;20076;-57
2022/07/28 17:42:06;;;;;;;14.20;11.27;;;;;;;26.03;57.12;97577.34;10374407;28;20076;-57
2022/07/28 17:47:05;;;;;;;13.68;11.77;;;;;;;25.92;57.93;97585.19;10374220;28;20094;-58
2022/07/28 17:52:06;;;;;;;14.02;11.10;;;;;;;25.80;58.62;97601.94;10375538;28;20574;-57
2022/07/28 17:57:04;;;;;;;13.98;10.93;;;;;;;25.67;59.16;97608.06;10374519;28;20073;-57
2022/07/28 18:02:03;;;;;;;13.27;11.25;;;;;;;25.53;59.62;97616.91;10373849;28;20043;-57
2022/07/28 18:07:02;;;;;;;12.23;10.93;;;;;;;25.46;59.88;97625.38;10373006;28;20041;-57
2022/07/28 18:12:01;;;;;;;11.80;10.60;;;;;;;25.39;60.34;97627.56;10374358;28;20045;-58
2022/07/28 18:17:01;;;;;;;13.02;11.07;;;;;;;25.28;60.88;97630.88;10373984;28;20500;-58
2022/07/28 18:22:00;;;;;;;13.02;10.98;;;;;;;25.18;61.31;97639.53;10373813;28;20067;-58
2022/07/28 18:26:59;;;;;;;14.02;11.15;;;;;;;25.08;61.59;97642.75;10373129;28;20117;-57
2022/07/28 18:31:58;;;;;;;13.50;10.88;;;;;;;24.99;61.75;97647.75;10373393;28;20052;-57
2022/07/28 18:36:58;;;;;;;12.45;11.07;;;;;;;24.97;61.72;97655.81;10371656;28;20068;-57
2022/07/28 18:41:57;;;;;;;15.77;12.30;;;;;;;24.90;62.19;97654.50;10368147;28;20096;-57
2022/07/28 18:46:56;;;;;;;19.60;13.15;;;;;;;24.76;62.73;97643.84;10372060;28;20072;-57
2022/07/28 18:51:55;;;;;;;14.25;12.05;;;;;;;24.59;62.41;97628.91;10366014;28;20492;-57
2022/07/28 18:56:55;;;;;;;16.88;12.70;;;;;;;24.49;62.73;97621.50;10366808;28;20137;-57
2022/07/28 19:01:53;;;;;;;14.00;12.55;;;;;;;24.41;63.84;97614.94;10374904;28;20069;-57
2022/07/28 19:06:53;;;;;;;15.05;11.73;;;;;;;24.31;64.98;97622.59;10375246;28;20028;-57
2022/07/28 19:11:52;;;;;;;18.60;12.27;;;;;;;24.25;65.63;97628.25;10372961;28;20614;-57
2022/07/28 19:16:50;;;;;;;13.52;12.13;;;;;;;24.11;66.15;97633.47;10371203;28;20506;-57
2022/07/28 19:21:50;;;;;;;13.93;11.82;;;;;;;24.00;66.09;97631.44;10372139;28;20041;-57
2022/07/28 19:26:50;;;;;;;13.73;12.32;;;;;;;23.82;66.50;97649.25;10370315;28;20061;-57
2022/07/28 19:31:49;;;;;;;15.43;12.40;;;;;;;23.66;67.52;97661.66;10371562;28;20645;-57
2022/07/28 19:36:50;;;;;;;14.02;12.18;;;;;;;23.54;68.13;97655.25;10374922;28;20539;-57
2022/07/28 19:41:49;;;;;;;15.00;13.13;;;;;;;23.46;68.08;97645.00;10373056;28;20079;-57
2022/07/28 19:46:48;;;;;;;14.60;13.07;;;;;;;23.32;69.38;97644.91;10372709;28;20028;-57
2022/07/28 19:51:47;;;;;;;15.00;13.50;;;;;;;23.14;69.95;97662.63;10374287;28;20079;-57
2022/07/28 19:56:46;;;;;;;16.27;13.65;;;;;;;22.99;70.79;97651.09;10374070;28;20040;-57
2022/07/28 20:01:45;;;;;;;17.25;13.60;;;;;;;22.91;71.02;97646.19;10374776;28;20527;-57
2022/07/28 20:06:44;;;;;;;18.88;14.65;;;;;;;22.83;71.59;97652.81;10373933;28;20416;-58
2022/07/28 20:11:44;;;;;;;18.65;15.00;;;;;;;22.73;71.93;97658.56;10376179;28;20099;-57
2022/07/28 20:16:43;;;;;;;17.23;14.77;;;;;;;22.64;72.68;97674.91;10382626;28;20130;-57
2022/07/28 20:21:42;;;;;;;16.83;15.05;;;;;;;22.57;73.56;97673.50;10381607;28;20017;-57
2022/07/28 20:26:41;;;;;;;17.90;14.55;;;;;;;22.52;73.47;97662.31;10382777;28;20116;-57
2022/07/28 20:31:40;;;;;;;17.60;15.32;;;;;;;22.45;74.33;97677.63;10381230;28;20036;-57
2022/07/28 20:36:39;;;;;;;17.98;15.20;;;;;;;22.37;75.00;97687.75;10376013;28;20071;-57
2022/07/28 20:41:38;;;;;;;15.90;14.18;;;;;;;22.30;75.26;97704.84;10376770;28;20045;-57
2022/07/28 20:46:36;;;;;;;16.75;14.82;;;;;;;22.27;75.22;97702.31;10375972;28;20203;-57
2022/07/28 20:51:35;;;;;;;19.27;15.73;;;;;;;22.12;76.80;97709.22;10376860;28;20037;-57
2022/07/28 20:56:34;;;;;;;18.27;15.75;;;;;;;21.97;76.94;97695.78;10377986;28;20032;-58
2022/07/28 21:01:33;;;;;;;18.40;16.23;;;;;;;21.93;77.75;97702.16;10376769;28;20025;-56
2022/07/28 21:06:33;;;;;;;18.10;15.98;;;;;;;21.89;77.80;97703.22;10376614;28;20185;-57
2022/07/28 21:11:32;;;;;;;21.17;16.92;;;;;;;21.82;77.71;97688.59;10376986;28;20072;-57
2022/07/28 21:16:31;;;;;;;22.00;17.02;;;;;;;21.81;78.20;97689.53;10376862;28;20471;-57
2022/07/28 21:21:30;;;;;;;19.13;16.52;;;;;;;21.76;79.00;97683.63;10375823;28;20424;-57
2022/07/28 21:26:29;;;;;;;17.95;15.27;;;;;;;21.71;79.17;97694.41;10374903;28;20072;-57
2022/07/28 21:31:28;;;;;;;17.90;16.00;;;;;;;21.67;79.06;97706.03;10374188;28;20442;-57
2022/07/28 21:36:27;;;;;;;18.85;16.85;;;;;;;21.62;79.23;97715.94;10375358;28;20035;-57
2022/07/28 21:41:26;;;;;;;20.70;16.77;;;;;;;21.50;79.39;97708.56;10375752;28;20041;-57
2022/07/28 21:46:25;;;;;;;21.48;17.15;;;;;;;21.51;79.64;97719.06;10373614;28;20068;-57
2022/07/28 21:51:25;;;;;;;19.95;17.83;;;;;;;21.45;80.04;97703.53;10372677;28;20145;-56
2022/07/28 21:56:26;;;;;;;19.73;17.70;;;;;;;21.39;80.43;97709.09;10367878;28;20071;-57
2022/07/28 22:01:25;;;;;;;20.00;16.40;;;;;;;21.32;80.82;97728.75;10370936;28;20072;-57
2022/07/28 22:06:24;;;;;;;19.20;15.93;;;;;;;21.22;81.40;97744.16;10373952;28;20072;-57
2022/07/28 22:11:23;;;;;;;22.10;18.00;;;;;;;20.51;84.20;97754.16;10372689;28;20136;-57
2022/07/28 22:16:22;;;;;;;20.80;18.00;;;;;;;20.36;84.20;97738.97;10370246;28;20033;-56
2022/07/28 22:21:21;;;;;;;20.45;18.23;;;;;;;20.37;84.62;97748.56;10369998;28;20545;-56
2022/07/28 22:26:20;;;;;;;19.45;17.27;;;;;;;20.41;84.73;97747.56;10372695;28;20055;-56
2022/07/28 22:31:19;;;;;;;20.73;18.40;;;;;;;20.52;84.48;97748.00;10372232;28;20500;-57
2022/07/28 22:36:18;;;;;;;23.30;18.15;;;;;;;20.53;84.59;97727.75;10373283;28;20094;-56
2022/07/28 22:41:17;;;;;;;21.90;17.88;;;;;;;20.53;84.77;97731.25;10373247;28;20423;-56
2022/07/28 22:46:16;;;;;;;20.67;18.42;;;;;;;20.54;84.81;97725.06;10372661;28;20029;-57
2022/07/28 22:51:15;;;;;;;24.50;19.70;;;;;;;20.54;84.88;97724.19;10372691;28;20501;-56